createdAt,value
2017-01-08T00:00:02.145Z,-61
2017-01-08T00:00:33.039Z,-60
2017-01-08T00:01:03.884Z,-60
2017-01-08T00:01:34.709Z,-60
2017-01-08T00:02:05.283Z,-60
2017-01-08T00:02:35.873Z,-60
2017-01-08T00:03:06.389Z,-61
2017-01-08T00:03:36.967Z,-60
2017-01-08T00:04:08.496Z,-60
2017-01-08T00:04:39.338Z,-60
2017-01-08T00:05:10.264Z,-60
2017-01-08T00:05:40.880Z,-61
2017-01-08T00:06:11.600Z,-61
2017-01-08T00:06:46.106Z,-61
2017-01-08T00:07:17.293Z,-61
2017-01-08T00:07:47.759Z,-61
2017-01-08T00:08:18.279Z,-61
2017-01-08T00:08:48.990Z,-60
2017-01-08T00:09:19.552Z,-61
2017-01-08T00:09:50.048Z,-61
2017-01-08T00:10:20.580Z,-60
2017-01-08T00:10:51.122Z,-61
2017-01-08T00:11:21.825Z,-61
2017-01-08T00:11:52.693Z,-60
2017-01-08T00:12:23.254Z,-60
2017-01-08T00:12:54.138Z,-61
2017-01-08T00:13:25.223Z,-60
2017-01-08T00:13:55.708Z,-60
2017-01-08T00:14:26.292Z,-60
2017-01-08T00:14:56.874Z,-61
2017-01-08T00:15:27.386Z,-61
2017-01-08T00:15:58.004Z,-61
2017-01-08T00:16:28.822Z,-61
2017-01-08T00:16:59.692Z,-61
2017-01-08T00:17:30.613Z,-61
2017-01-08T00:18:01.231Z,-60
2017-01-08T00:18:31.751Z,-60
2017-01-08T00:19:02.568Z,-61
2017-01-08T00:19:33.703Z,-61
2017-01-08T00:20:04.265Z,-61
2017-01-08T00:20:34.779Z,-61
2017-01-08T00:21:05.655Z,-60
2017-01-08T00:21:36.236Z,-60
2017-01-08T00:22:07.182Z,-60
2017-01-08T00:22:37.736Z,-61
2017-01-08T00:23:08.742Z,-60
2017-01-08T00:23:39.334Z,-60
2017-01-08T00:24:09.923Z,-60
2017-01-08T00:24:40.695Z,-61
2017-01-08T00:25:11.343Z,-61
2017-01-08T00:25:41.886Z,-61
2017-01-08T00:26:12.944Z,-61
2017-01-08T00:26:43.456Z,-60
2017-01-08T00:27:14.160Z,-61
2017-01-08T00:27:44.791Z,-61
2017-01-08T00:28:15.337Z,-60
2017-01-08T00:28:46.153Z,-61
2017-01-08T00:29:16.734Z,-61
2017-01-08T00:29:47.324Z,-61
2017-01-08T00:30:17.783Z,-62
2017-01-08T00:30:48.327Z,-62
2017-01-08T00:31:18.858Z,-62
2017-01-08T00:31:49.321Z,-62
2017-01-08T00:32:20.169Z,-61
2017-01-08T00:32:50.694Z,-61
2017-01-08T00:33:21.190Z,-60
2017-01-08T00:33:52.130Z,-61
2017-01-08T00:34:23.049Z,-61
2017-01-08T00:34:53.542Z,-61
2017-01-08T00:35:24.127Z,-60
2017-01-08T00:35:54.745Z,-61
2017-01-08T00:36:25.720Z,-60
2017-01-08T00:36:56.219Z,-61
2017-01-08T00:37:26.809Z,-60
2017-01-08T00:37:57.333Z,-61
2017-01-08T00:38:27.935Z,-61
2017-01-08T00:38:58.465Z,-61
2017-01-08T00:39:29.080Z,-60
2017-01-08T00:39:59.549Z,-61
2017-01-08T00:40:30.065Z,-61
2017-01-08T00:41:00.563Z,-60
2017-01-08T00:41:31.211Z,-60
2017-01-08T00:42:01.935Z,-61
2017-01-08T00:42:32.578Z,-61
2017-01-08T00:43:03.511Z,-61
2017-01-08T00:43:34.053Z,-60
2017-01-08T00:44:04.571Z,-60
2017-01-08T00:44:35.124Z,-60
2017-01-08T00:45:05.651Z,-60
2017-01-08T00:45:36.646Z,-61
2017-01-08T00:46:07.204Z,-61
2017-01-08T00:46:37.846Z,-61
2017-01-08T00:47:08.428Z,-62
2017-01-08T00:47:38.970Z,-63
2017-01-08T00:48:09.476Z,-61
2017-01-08T00:48:39.975Z,-61
2017-01-08T00:49:10.465Z,-60
2017-01-08T00:49:40.953Z,-60
2017-01-08T00:50:11.417Z,-60
2017-01-08T00:50:41.893Z,-60
2017-01-08T00:51:12.454Z,-60
2017-01-08T00:51:42.998Z,-60
2017-01-08T00:52:13.505Z,-61
2017-01-08T00:52:44.080Z,-60
2017-01-08T00:53:14.627Z,-61
2017-01-08T00:53:45.116Z,-61
2017-01-08T00:54:15.600Z,-61
2017-01-08T00:54:46.115Z,-61
2017-01-08T00:55:16.635Z,-61
2017-01-08T00:55:47.166Z,-61
2017-01-08T00:56:17.683Z,-61
2017-01-08T00:56:48.329Z,-61
2017-01-08T00:57:18.846Z,-60
2017-01-08T00:57:49.356Z,-61
2017-01-08T00:58:19.886Z,-61
2017-01-08T00:58:50.379Z,-61
2017-01-08T00:59:20.856Z,-60
2017-01-08T00:59:51.317Z,-61
2017-01-08T01:00:21.788Z,-61
2017-01-08T01:00:52.315Z,-61
2017-01-08T01:01:22.968Z,-60
2017-01-08T01:01:53.487Z,-60
2017-01-08T01:02:24.002Z,-60
2017-01-08T01:02:54.530Z,-61
2017-01-08T01:03:25.239Z,-61
2017-01-08T01:03:55.743Z,-61
2017-01-08T01:04:26.251Z,-61
2017-01-08T01:04:56.767Z,-60
2017-01-08T01:05:27.278Z,-61
2017-01-08T01:05:57.774Z,-61
2017-01-08T01:06:28.279Z,-61
2017-01-08T01:06:58.836Z,-61
2017-01-08T01:07:29.339Z,-61
2017-01-08T01:07:59.876Z,-61
2017-01-08T01:08:30.385Z,-60
2017-01-08T01:09:00.905Z,-61
2017-01-08T01:09:31.363Z,-61
2017-01-08T01:10:01.887Z,-61
2017-01-08T01:10:32.422Z,-61
2017-01-08T01:11:03.036Z,-61
2017-01-08T01:11:33.463Z,-61
2017-01-08T01:12:04.000Z,-61
2017-01-08T01:12:34.518Z,-61
2017-01-08T01:13:05.047Z,-61
2017-01-08T01:13:35.554Z,-61
2017-01-08T01:14:06.156Z,-61
2017-01-08T01:14:36.661Z,-60
2017-01-08T01:15:07.130Z,-61
2017-01-08T01:15:37.672Z,-61
2017-01-08T01:16:08.173Z,-61
2017-01-08T01:16:38.698Z,-61
2017-01-08T01:17:09.268Z,-61
2017-01-08T01:17:39.854Z,-61
2017-01-08T01:18:10.387Z,-61
2017-01-08T01:18:40.911Z,-61
2017-01-08T01:19:11.403Z,-61
2017-01-08T01:19:41.932Z,-61
2017-01-08T01:20:12.431Z,-61
2017-01-08T01:20:42.929Z,-60
2017-01-08T01:21:13.372Z,-61
2017-01-08T01:21:43.846Z,-61
2017-01-08T01:22:14.414Z,-61
2017-01-08T01:22:45.026Z,-61
2017-01-08T01:23:15.522Z,-61
2017-01-08T01:23:46.062Z,-61
2017-01-08T01:24:16.690Z,-61
2017-01-08T01:24:47.279Z,-61
2017-01-08T01:25:17.803Z,-61
2017-01-08T01:25:48.285Z,-61
2017-01-08T01:26:18.793Z,-62
2017-01-08T01:26:49.282Z,-61
2017-01-08T01:27:19.834Z,-62
2017-01-08T01:27:50.358Z,-61
2017-01-08T01:28:20.881Z,-60
2017-01-08T01:28:51.388Z,-62
2017-01-08T01:29:21.930Z,-60
2017-01-08T01:29:52.452Z,-61
2017-01-08T01:30:23.075Z,-61
2017-01-08T01:30:53.551Z,-61
2017-01-08T01:31:24.056Z,-61
2017-01-08T01:31:54.534Z,-61
2017-01-08T01:32:25.095Z,-60
2017-01-08T01:32:55.607Z,-61
2017-01-08T01:33:26.127Z,-61
2017-01-08T01:33:56.643Z,-61
2017-01-08T01:34:27.203Z,-61
2017-01-08T01:34:57.815Z,-61
2017-01-08T01:35:28.448Z,-61
2017-01-08T01:35:58.936Z,-61
2017-01-08T01:36:29.415Z,-61
2017-01-08T01:36:59.930Z,-61
2017-01-08T01:37:30.454Z,-61
2017-01-08T01:38:00.937Z,-61
2017-01-08T01:38:31.424Z,-61
2017-01-08T01:39:02.026Z,-61
2017-01-08T01:39:32.543Z,-61
2017-01-08T01:40:03.080Z,-61
2017-01-08T01:40:33.592Z,-61
2017-01-08T01:41:04.188Z,-61
2017-01-08T01:41:34.687Z,-61
2017-01-08T01:42:05.181Z,-61
2017-01-08T01:42:35.713Z,-61
2017-01-08T01:43:06.214Z,-61
2017-01-08T01:43:36.729Z,-61
2017-01-08T01:44:07.262Z,-61
2017-01-08T01:44:37.799Z,-61
2017-01-08T01:45:08.315Z,-61
2017-01-08T01:45:38.836Z,-61
2017-01-08T01:46:09.346Z,-61
2017-01-08T01:46:39.826Z,-61
2017-01-08T01:47:10.339Z,-61
2017-01-08T01:47:40.872Z,-61
2017-01-08T01:48:11.333Z,-61
2017-01-08T01:48:41.862Z,-61
2017-01-08T01:49:12.423Z,-61
2017-01-08T01:49:42.963Z,-61
2017-01-08T01:50:13.474Z,-61
2017-01-08T01:50:44.114Z,-60
2017-01-08T01:51:14.708Z,-60
2017-01-08T01:51:45.339Z,-61
2017-01-08T01:52:15.902Z,-61
2017-01-08T01:52:46.454Z,-61
2017-01-08T01:53:16.936Z,-61
2017-01-08T01:53:47.383Z,-61
2017-01-08T01:54:17.835Z,-61
2017-01-08T01:54:48.362Z,-61
2017-01-08T01:55:18.931Z,-61
2017-01-08T01:55:49.420Z,-61
2017-01-08T01:56:19.976Z,-61
2017-01-08T01:56:50.578Z,-61
2017-01-08T01:57:21.090Z,-60
2017-01-08T01:57:51.573Z,-61
2017-01-08T01:58:22.082Z,-61
2017-01-08T01:58:52.587Z,-61
2017-01-08T01:59:23.090Z,-65
2017-01-08T01:59:53.584Z,-61
2017-01-08T02:00:24.167Z,-61
2017-01-08T02:00:54.702Z,-61
2017-01-08T02:01:25.233Z,-61
2017-01-08T02:01:55.832Z,-61
2017-01-08T02:02:26.336Z,-61
2017-01-08T02:02:56.840Z,-60
2017-01-08T02:03:27.302Z,-61
2017-01-08T02:03:57.843Z,-61
2017-01-08T02:04:28.349Z,-61
2017-01-08T02:04:58.894Z,-61
2017-01-08T02:05:29.394Z,-61
2017-01-08T02:05:59.978Z,-61
2017-01-08T02:06:30.493Z,-61
2017-01-08T02:07:01.111Z,-61
2017-01-08T02:07:31.618Z,-60
2017-01-08T02:08:02.119Z,-61
2017-01-08T02:08:32.593Z,-60
2017-01-08T02:09:03.094Z,-61
2017-01-08T02:09:33.595Z,-61
2017-01-08T02:10:04.124Z,-61
2017-01-08T02:10:34.664Z,-61
2017-01-08T02:11:05.218Z,-61
2017-01-08T02:11:35.835Z,-61
2017-01-08T02:12:06.454Z,-61
2017-01-08T02:12:37.088Z,-61
2017-01-08T02:13:07.596Z,-61
2017-01-08T02:13:38.188Z,-61
2017-01-08T02:14:08.678Z,-60
2017-01-08T02:14:39.186Z,-60
2017-01-08T02:15:09.703Z,-61
2017-01-08T02:15:40.207Z,-61
2017-01-08T02:16:10.747Z,-61
2017-01-08T02:16:41.270Z,-60
2017-01-08T02:17:11.816Z,-61
2017-01-08T02:17:42.397Z,-61
2017-01-08T02:18:12.945Z,-60
2017-01-08T02:18:43.469Z,-60
2017-01-08T02:19:14.060Z,-61
2017-01-08T02:19:44.546Z,-61
2017-01-08T02:20:15.069Z,-60
2017-01-08T02:20:45.524Z,-61
2017-01-08T02:21:16.100Z,-61
2017-01-08T02:21:46.615Z,-61
2017-01-08T02:22:17.240Z,-61
2017-01-08T02:22:47.780Z,-61
2017-01-08T02:23:18.306Z,-61
2017-01-08T02:23:48.916Z,-61
2017-01-08T02:24:19.415Z,-61
2017-01-08T02:24:49.939Z,-61
2017-01-08T02:25:20.425Z,-61
2017-01-08T02:25:50.932Z,-61
2017-01-08T02:26:21.378Z,-62
2017-01-08T02:26:51.852Z,-61
2017-01-08T02:27:22.385Z,-61
2017-01-08T02:27:52.926Z,-61
2017-01-08T02:28:23.488Z,-61
2017-01-08T02:28:54.071Z,-61
2017-01-08T02:29:24.774Z,-61
2017-01-08T02:29:55.325Z,-60
2017-01-08T02:30:25.815Z,-61
2017-01-08T02:30:56.298Z,-61
2017-01-08T02:31:26.809Z,-61
2017-01-08T02:31:57.282Z,-60
2017-01-08T02:32:27.837Z,-61
2017-01-08T02:32:58.370Z,-61
2017-01-08T02:33:28.924Z,-61
2017-01-08T02:33:59.420Z,-61
2017-01-08T02:34:29.950Z,-61
2017-01-08T02:35:00.552Z,-61
2017-01-08T02:35:31.068Z,-61
2017-01-08T02:36:01.520Z,-61
2017-01-08T02:36:32.102Z,-61
2017-01-08T02:37:02.566Z,-61
2017-01-08T02:37:33.092Z,-61
2017-01-08T02:38:03.541Z,-60
2017-01-08T02:38:34.084Z,-68
2017-01-08T02:39:04.664Z,-61
2017-01-08T02:39:35.203Z,-61
2017-01-08T02:40:05.812Z,-61
2017-01-08T02:40:36.395Z,-61
2017-01-08T02:41:06.935Z,-61
2017-01-08T02:41:37.359Z,-61
2017-01-08T02:42:07.826Z,-61
2017-01-08T02:42:38.337Z,-60
2017-01-08T02:43:08.857Z,-61
2017-01-08T02:43:39.369Z,-61
2017-01-08T02:44:09.922Z,-61
2017-01-08T02:44:40.463Z,-61
2017-01-08T02:45:11.078Z,-61
2017-01-08T02:45:41.590Z,-61
2017-01-08T02:46:12.165Z,-61
2017-01-08T02:46:42.700Z,-61
2017-01-08T02:47:13.189Z,-61
2017-01-08T02:47:43.704Z,-61
2017-01-08T02:48:14.205Z,-61
2017-01-08T02:48:44.761Z,-61
2017-01-08T02:49:15.276Z,-61
2017-01-08T02:49:45.801Z,-61
2017-01-08T02:50:16.325Z,-61
2017-01-08T02:50:46.852Z,-61
2017-01-08T02:51:17.340Z,-61
2017-01-08T02:51:47.847Z,-61
2017-01-08T02:52:18.346Z,-61
2017-01-08T02:52:48.848Z,-61
2017-01-08T02:53:19.319Z,-61
2017-01-08T02:53:49.899Z,-61
2017-01-08T02:54:20.427Z,-61
2017-01-08T02:54:50.989Z,-61
2017-01-08T02:55:21.493Z,-60
2017-01-08T02:55:52.095Z,-61
2017-01-08T02:56:22.607Z,-61
2017-01-08T02:56:53.062Z,-61
2017-01-08T02:57:23.531Z,-61
2017-01-08T02:57:53.999Z,-61
2017-01-08T02:58:24.509Z,-61
2017-01-08T02:58:55.079Z,-61
2017-01-08T02:59:25.563Z,-61
2017-01-08T02:59:56.115Z,-61
2017-01-08T03:00:26.638Z,-60
2017-01-08T03:00:57.257Z,-61
2017-01-08T03:01:27.866Z,-60
2017-01-08T03:01:58.468Z,-61
2017-01-08T03:02:28.919Z,-61
2017-01-08T03:02:59.369Z,-61
2017-01-08T03:03:29.864Z,-61
2017-01-08T03:04:00.409Z,-61
2017-01-08T03:04:30.949Z,-61
2017-01-08T03:05:01.419Z,-61
2017-01-08T03:05:31.995Z,-61
2017-01-08T03:06:02.600Z,-61
2017-01-08T03:06:33.126Z,-61
2017-01-08T03:07:03.745Z,-61
2017-01-08T03:07:34.333Z,-61
2017-01-08T03:08:04.807Z,-61
2017-01-08T03:08:35.284Z,-61
2017-01-08T03:09:05.755Z,-61
2017-01-08T03:09:36.282Z,-61
2017-01-08T03:10:06.820Z,-60
2017-01-08T03:10:37.335Z,-61
2017-01-08T03:11:07.868Z,-60
2017-01-08T03:11:38.478Z,-60
2017-01-08T03:12:09.000Z,-61
2017-01-08T03:12:39.462Z,-60
2017-01-08T03:13:09.981Z,-61
2017-01-08T03:13:40.467Z,-61
2017-01-08T03:14:10.945Z,-61
2017-01-08T03:14:41.383Z,-61
2017-01-08T03:15:11.968Z,-61
2017-01-08T03:15:42.491Z,-61
2017-01-08T03:16:13.006Z,-61
2017-01-08T03:16:43.520Z,-61
2017-01-08T03:17:14.031Z,-61
2017-01-08T03:17:44.488Z,-61
2017-01-08T03:18:15.012Z,-61
2017-01-08T03:18:45.462Z,-61
2017-01-08T03:19:15.978Z,-61
2017-01-08T03:19:46.505Z,-61
2017-01-08T03:20:17.027Z,-61
2017-01-08T03:20:47.541Z,-61
2017-01-08T03:21:18.070Z,-61
2017-01-08T03:21:48.688Z,-60
2017-01-08T03:22:19.290Z,-61
2017-01-08T03:22:49.774Z,-61
2017-01-08T03:23:20.224Z,-61
2017-01-08T03:23:50.865Z,-60
2017-01-08T03:24:21.333Z,-61
2017-01-08T03:24:51.834Z,-61
2017-01-08T03:25:22.362Z,-61
2017-01-08T03:25:52.879Z,-61
2017-01-08T03:26:23.370Z,-63
2017-01-08T03:26:53.939Z,-62
2017-01-08T03:27:24.550Z,-61
2017-01-08T03:27:55.044Z,-61
2017-01-08T03:28:25.505Z,-61
2017-01-08T03:28:55.935Z,-61
2017-01-08T03:29:26.475Z,-61
2017-01-08T03:29:56.999Z,-60
2017-01-08T03:30:27.500Z,-61
2017-01-08T03:30:58.050Z,-61
2017-01-08T03:31:28.554Z,-61
2017-01-08T03:31:59.109Z,-61
2017-01-08T03:32:29.612Z,-61
2017-01-08T03:33:00.186Z,-61
2017-01-08T03:33:30.688Z,-61
2017-01-08T03:34:01.200Z,-61
2017-01-08T03:34:31.728Z,-61
2017-01-08T03:35:02.221Z,-61
2017-01-08T03:35:32.783Z,-61
2017-01-08T03:36:03.266Z,-61
2017-01-08T03:36:33.825Z,-61
2017-01-08T03:37:04.449Z,-60
2017-01-08T03:37:35.189Z,-61
2017-01-08T03:38:05.788Z,-61
2017-01-08T03:38:36.479Z,-60
2017-01-08T03:39:06.989Z,-61
2017-01-08T03:39:37.473Z,-61
2017-01-08T03:40:07.987Z,-60
2017-01-08T03:40:38.507Z,-60
2017-01-08T03:41:09.120Z,-60
2017-01-08T03:41:39.660Z,-60
2017-01-08T03:42:10.173Z,-60
2017-01-08T03:42:40.720Z,-60
2017-01-08T03:43:11.223Z,-60
2017-01-08T03:43:41.867Z,-60
2017-01-08T03:44:12.555Z,-60
2017-01-08T03:44:43.232Z,-60
2017-01-08T03:45:13.813Z,-60
2017-01-08T03:45:44.308Z,-60
2017-01-08T03:46:14.918Z,-60
2017-01-08T03:46:45.361Z,-60
2017-01-08T03:47:15.928Z,-60
2017-01-08T03:47:46.542Z,-60
2017-01-08T03:48:17.073Z,-60
2017-01-08T03:48:47.554Z,-60
2017-01-08T03:49:18.131Z,-60
2017-01-08T03:49:48.646Z,-60
2017-01-08T03:50:19.117Z,-60
2017-01-08T03:50:49.654Z,-60
2017-01-08T03:51:20.173Z,-60
2017-01-08T03:51:50.668Z,-60
2017-01-08T03:52:21.189Z,-60
2017-01-08T03:52:51.713Z,-62
2017-01-08T03:53:22.204Z,-60
2017-01-08T03:53:52.735Z,-60
2017-01-08T03:54:23.270Z,-60
2017-01-08T03:54:53.821Z,-60
2017-01-08T03:55:24.409Z,-60
2017-01-08T03:55:54.952Z,-60
2017-01-08T03:56:25.440Z,-60
2017-01-08T03:56:55.929Z,-60
2017-01-08T03:57:26.446Z,-60
2017-01-08T03:57:56.958Z,-60
2017-01-08T03:58:27.415Z,-60
2017-01-08T03:58:57.876Z,-60
2017-01-08T03:59:28.450Z,-60
2017-01-08T03:59:59.084Z,-60
2017-01-08T04:00:29.603Z,-60
2017-01-08T04:01:00.203Z,-60
2017-01-08T04:01:30.821Z,-60
2017-01-08T04:02:01.317Z,-60
2017-01-08T04:02:31.802Z,-60
2017-01-08T04:03:02.422Z,-60
2017-01-08T04:03:32.915Z,-60
2017-01-08T04:04:03.362Z,-61
2017-01-08T04:04:33.843Z,-61
2017-01-08T04:05:04.419Z,-60
2017-01-08T04:05:34.941Z,-60
2017-01-08T04:06:05.450Z,-60
2017-01-08T04:06:35.969Z,-60
2017-01-08T04:07:06.451Z,-60
2017-01-08T04:07:36.961Z,-60
2017-01-08T04:08:07.433Z,-60
2017-01-08T04:08:37.974Z,-60
2017-01-08T04:09:08.498Z,-60
2017-01-08T04:09:39.039Z,-60
2017-01-08T04:10:09.558Z,-60
2017-01-08T04:10:40.089Z,-60
2017-01-08T04:11:10.714Z,-60
2017-01-08T04:11:41.300Z,-60
2017-01-08T04:12:11.843Z,-60
2017-01-08T04:12:42.440Z,-60
2017-01-08T04:13:12.928Z,-60
2017-01-08T04:13:43.396Z,-60
2017-01-08T04:14:13.948Z,-60
2017-01-08T04:14:44.464Z,-60
2017-01-08T04:15:15.008Z,-60
2017-01-08T04:15:45.507Z,-60
2017-01-08T04:16:16.047Z,-60
2017-01-08T04:16:46.580Z,-60
2017-01-08T04:17:17.108Z,-60
2017-01-08T04:17:47.594Z,-60
2017-01-08T04:18:18.072Z,-60
2017-01-08T04:18:48.582Z,-60
2017-01-08T04:19:19.090Z,-60
2017-01-08T04:19:49.617Z,-60
2017-01-08T04:20:20.155Z,-60
2017-01-08T04:20:50.716Z,-60
2017-01-08T04:21:21.320Z,-60
2017-01-08T04:21:51.915Z,-59
2017-01-08T04:22:22.409Z,-60
2017-01-08T04:22:52.977Z,-61
2017-01-08T04:23:23.483Z,-60
2017-01-08T04:23:54.060Z,-60
2017-01-08T04:24:24.575Z,-60
2017-01-08T04:24:55.078Z,-60
2017-01-08T04:25:25.592Z,-60
2017-01-08T04:25:56.106Z,-60
2017-01-08T04:26:26.656Z,-60
2017-01-08T04:26:57.166Z,-60
2017-01-08T04:27:27.699Z,-60
2017-01-08T04:27:58.228Z,-60
2017-01-08T04:28:28.845Z,-60
2017-01-08T04:28:59.311Z,-60
2017-01-08T04:29:29.830Z,-60
2017-01-08T04:30:00.327Z,-60
2017-01-08T04:30:30.839Z,-60
2017-01-08T04:31:01.313Z,-60
2017-01-08T04:31:31.836Z,-60
2017-01-08T04:32:02.457Z,-60
2017-01-08T04:32:33.067Z,-60
2017-01-08T04:33:03.568Z,-61
2017-01-08T04:33:34.102Z,-61
2017-01-08T04:34:04.704Z,-60
2017-01-08T04:34:35.195Z,-61
2017-01-08T04:35:05.708Z,-61
2017-01-08T04:35:36.231Z,-61
2017-01-08T04:36:06.741Z,-61
2017-01-08T04:36:37.238Z,-61
2017-01-08T04:37:07.797Z,-61
2017-01-08T04:37:38.317Z,-61
2017-01-08T04:38:08.845Z,-60
2017-01-08T04:38:39.378Z,-61
2017-01-08T04:39:09.980Z,-61
2017-01-08T04:39:40.582Z,-61
2017-01-08T04:40:11.072Z,-61
2017-01-08T04:40:41.548Z,-60
2017-01-08T04:41:12.392Z,-60
2017-01-08T04:41:42.953Z,-60
2017-01-08T04:42:13.408Z,-60
2017-01-08T04:42:43.931Z,-60
2017-01-08T04:43:14.485Z,-61
2017-01-08T04:43:45.016Z,-60
2017-01-08T04:44:15.519Z,-61
2017-01-08T04:44:46.054Z,-60
2017-01-08T04:45:16.655Z,-61
2017-01-08T04:45:47.188Z,-60
2017-01-08T04:46:17.765Z,-61
2017-01-08T04:46:48.275Z,-61
2017-01-08T04:47:18.791Z,-61
2017-01-08T04:47:49.272Z,-60
2017-01-08T04:48:19.828Z,-60
2017-01-08T04:48:50.369Z,-60
2017-01-08T04:49:20.892Z,-61
2017-01-08T04:49:51.373Z,-61
2017-01-08T04:50:21.906Z,-61
2017-01-08T04:50:52.446Z,-60
2017-01-08T04:51:23.013Z,-60
2017-01-08T04:51:53.471Z,-60
2017-01-08T04:52:24.038Z,-60
2017-01-08T04:52:54.559Z,-61
2017-01-08T04:53:25.075Z,-60
2017-01-08T04:53:55.567Z,-60
2017-01-08T04:54:26.127Z,-60
2017-01-08T04:54:56.641Z,-60
2017-01-08T04:55:27.161Z,-60
2017-01-08T04:55:57.712Z,-60
2017-01-08T04:56:28.290Z,-60
2017-01-08T04:56:58.774Z,-60
2017-01-08T04:57:29.273Z,-60
2017-01-08T04:57:59.804Z,-60
2017-01-08T04:58:30.320Z,-60
2017-01-08T04:59:00.862Z,-60
2017-01-08T04:59:31.363Z,-61
2017-01-08T05:00:01.901Z,-60
2017-01-08T05:00:32.445Z,-60
2017-01-08T05:01:03.090Z,-60
2017-01-08T05:01:33.582Z,-60
2017-01-08T05:02:04.158Z,-60
2017-01-08T05:02:34.660Z,-60
2017-01-08T05:03:05.159Z,-60
2017-01-08T05:03:35.683Z,-60
2017-01-08T05:04:06.185Z,-60
2017-01-08T05:04:36.738Z,-60
2017-01-08T05:05:07.281Z,-60
2017-01-08T05:05:37.891Z,-60
2017-01-08T05:06:08.423Z,-60
2017-01-08T05:06:39.042Z,-60
2017-01-08T05:07:09.544Z,-60
2017-01-08T05:07:40.021Z,-60
2017-01-08T05:08:10.514Z,-61
2017-01-08T05:08:41.045Z,-60
2017-01-08T05:09:11.519Z,-61
2017-01-08T05:09:42.067Z,-61
2017-01-08T05:10:12.629Z,-61
2017-01-08T05:10:43.135Z,-60
2017-01-08T05:11:13.681Z,-61
2017-01-08T05:11:44.266Z,-61
2017-01-08T05:12:14.801Z,-61
2017-01-08T05:12:45.292Z,-60
2017-01-08T05:13:15.789Z,-60
2017-01-08T05:13:46.302Z,-60
2017-01-08T05:14:16.807Z,-60
2017-01-08T05:14:47.270Z,-60
2017-01-08T05:15:17.778Z,-60
2017-01-08T05:15:48.308Z,-61
2017-01-08T05:16:18.967Z,-61
2017-01-08T05:16:49.479Z,-61
2017-01-08T05:17:20.063Z,-61
2017-01-08T05:17:50.660Z,-61
2017-01-08T05:18:21.168Z,-60
2017-01-08T05:18:51.666Z,-61
2017-01-08T05:19:22.161Z,-61
2017-01-08T05:19:52.686Z,-61
2017-01-08T05:20:23.201Z,-61
2017-01-08T05:20:53.745Z,-61
2017-01-08T05:21:24.395Z,-61
2017-01-08T05:21:55.010Z,-60
2017-01-08T05:22:25.512Z,-60
2017-01-08T05:22:56.034Z,-61
2017-01-08T05:23:26.548Z,-61
2017-01-08T05:23:57.039Z,-60
2017-01-08T05:24:27.514Z,-61
2017-01-08T05:24:58.047Z,-61
2017-01-08T05:25:28.554Z,-61
2017-01-08T05:25:59.084Z,-61
2017-01-08T05:26:29.635Z,-61
2017-01-08T05:27:00.136Z,-61
2017-01-08T05:27:30.671Z,-61
2017-01-08T05:28:01.173Z,-61
2017-01-08T05:28:31.715Z,-61
2017-01-08T05:29:02.294Z,-61
2017-01-08T05:29:32.793Z,-61
2017-01-08T05:30:03.277Z,-61
2017-01-08T05:30:33.820Z,-61
2017-01-08T05:31:04.325Z,-61
2017-01-08T05:31:34.909Z,-61
2017-01-08T05:32:05.387Z,-61
2017-01-08T05:32:35.939Z,-60
2017-01-08T05:33:06.543Z,-61
2017-01-08T05:33:37.069Z,-61
2017-01-08T05:34:07.529Z,-61
2017-01-08T05:34:38.051Z,-61
2017-01-08T05:35:08.561Z,-61
2017-01-08T05:35:39.168Z,-61
2017-01-08T05:36:09.683Z,-61
2017-01-08T05:36:40.219Z,-61
2017-01-08T05:37:10.746Z,-61
2017-01-08T05:37:41.269Z,-61
2017-01-08T05:38:11.800Z,-61
2017-01-08T05:38:42.316Z,-61
2017-01-08T05:39:12.949Z,-61
2017-01-08T05:39:43.577Z,-61
2017-01-08T05:40:14.150Z,-61
2017-01-08T05:40:44.624Z,-61
2017-01-08T05:41:15.164Z,-61
2017-01-08T05:41:45.778Z,-61
2017-01-08T05:42:16.276Z,-61
2017-01-08T05:42:46.806Z,-61
2017-01-08T05:43:17.323Z,-61
2017-01-08T05:43:47.871Z,-60
2017-01-08T05:44:18.492Z,-61
2017-01-08T05:44:49.015Z,-61
2017-01-08T05:45:19.492Z,-61
2017-01-08T05:45:50.008Z,-61
2017-01-08T05:46:20.497Z,-61
2017-01-08T05:46:51.059Z,-61
2017-01-08T05:47:21.503Z,-61
2017-01-08T05:47:52.058Z,-61
2017-01-08T05:48:22.599Z,-61
2017-01-08T05:48:53.122Z,-61
2017-01-08T05:49:23.632Z,-61
2017-01-08T05:49:54.156Z,-61
2017-01-08T05:50:24.659Z,-60
2017-01-08T05:50:55.162Z,-61
2017-01-08T05:51:25.655Z,-61
2017-01-08T05:51:56.184Z,-61
2017-01-08T05:52:26.689Z,-61
2017-01-08T05:52:57.206Z,-61
2017-01-08T05:53:27.759Z,-61
2017-01-08T05:53:58.252Z,-61
2017-01-08T05:54:28.803Z,-60
2017-01-08T05:54:59.329Z,-61
2017-01-08T05:55:30.080Z,-61
2017-01-08T05:56:00.657Z,-61
2017-01-08T05:56:31.249Z,-60
2017-01-08T05:57:01.765Z,-61
2017-01-08T05:57:32.333Z,-61
2017-01-08T05:58:02.790Z,-60
2017-01-08T05:58:33.268Z,-60
2017-01-08T05:59:03.814Z,-61
2017-01-08T05:59:34.350Z,-61
2017-01-08T06:00:04.883Z,-61
2017-01-08T06:00:35.385Z,-61
2017-01-08T06:01:05.919Z,-61
2017-01-08T06:01:36.522Z,-61
2017-01-08T06:02:07.020Z,-61
2017-01-08T06:02:37.480Z,-61
2017-01-08T06:03:08.027Z,-61
2017-01-08T06:03:38.546Z,-61
2017-01-08T06:04:09.068Z,-61
2017-01-08T06:04:39.564Z,-61
2017-01-08T06:05:10.126Z,-61
2017-01-08T06:05:40.631Z,-61
2017-01-08T06:06:11.177Z,-61
2017-01-08T06:06:41.785Z,-61
2017-01-08T06:07:12.386Z,-61
2017-01-08T06:07:42.868Z,-61
2017-01-08T06:08:13.331Z,-61
2017-01-08T06:08:43.908Z,-61
2017-01-08T06:09:14.422Z,-61
2017-01-08T06:09:44.948Z,-61
2017-01-08T06:10:15.474Z,-61
2017-01-08T06:10:46.007Z,-61
2017-01-08T06:11:16.521Z,-61
2017-01-08T06:11:47.036Z,-60
2017-01-08T06:12:17.542Z,-61
2017-01-08T06:12:48.036Z,-60
2017-01-08T06:13:18.698Z,-60
2017-01-08T06:13:49.273Z,-61
2017-01-08T06:14:19.770Z,-90
2017-01-08T06:14:50.424Z,-88
2017-01-08T06:15:21.056Z,-63
2017-01-08T06:15:51.518Z,-78
2017-01-08T06:16:22.178Z,-66
2017-01-08T06:16:52.821Z,-64
2017-01-08T06:17:23.451Z,-61
2017-01-08T06:17:54.039Z,-61
2017-01-08T06:18:24.725Z,-88
2017-01-08T06:18:55.320Z,-84
2017-01-08T06:19:25.999Z,-85
2017-01-08T06:19:56.690Z,-80
2017-01-08T06:20:27.317Z,-89
2017-01-08T06:20:57.996Z,-63
2017-01-08T06:21:28.692Z,-61
2017-01-08T06:21:59.291Z,-61
2017-01-08T06:22:29.786Z,-61
2017-01-08T06:23:00.279Z,-61
2017-01-08T06:23:30.779Z,-61
2017-01-08T06:24:01.266Z,-60
2017-01-08T06:24:31.833Z,-61
2017-01-08T06:25:02.378Z,-61
2017-01-08T06:25:32.894Z,-60
2017-01-08T06:26:03.385Z,-61
2017-01-08T06:26:33.914Z,-61
2017-01-08T06:27:04.439Z,-61
2017-01-08T06:27:34.949Z,-61
2017-01-08T06:28:05.409Z,-61
2017-01-08T06:28:35.936Z,-61
2017-01-08T06:29:06.461Z,-61
2017-01-08T06:29:37.081Z,-61
2017-01-08T06:30:07.618Z,-61
2017-01-08T06:30:38.120Z,-61
2017-01-08T06:31:08.769Z,-60
2017-01-08T06:31:39.302Z,-61
2017-01-08T06:32:09.882Z,-61
2017-01-08T06:32:40.435Z,-61
2017-01-08T06:33:11.023Z,-60
2017-01-08T06:33:41.481Z,-60
2017-01-08T06:34:12.026Z,-60
2017-01-08T06:34:42.531Z,-61
2017-01-08T06:35:13.043Z,-61
2017-01-08T06:35:43.532Z,-61
2017-01-08T06:36:14.127Z,-60
2017-01-08T06:36:44.744Z,-60
2017-01-08T06:37:15.249Z,-60
2017-01-08T06:37:45.789Z,-61
2017-01-08T06:38:16.384Z,-61
2017-01-08T06:38:46.886Z,-60
2017-01-08T06:39:17.333Z,-61
2017-01-08T06:39:47.906Z,-60
2017-01-08T06:40:18.407Z,-60
2017-01-08T06:40:48.949Z,-60
2017-01-08T06:41:19.435Z,-60
2017-01-08T06:41:50.001Z,-60
2017-01-08T06:42:20.514Z,-60
2017-01-08T06:42:51.039Z,-61
2017-01-08T06:43:21.545Z,-61
2017-01-08T06:43:52.036Z,-61
2017-01-08T06:44:22.538Z,-61
2017-01-08T06:44:53.059Z,-60
2017-01-08T06:45:23.514Z,-60
2017-01-08T06:45:54.084Z,-61
2017-01-08T06:46:24.623Z,-60
2017-01-08T06:46:55.127Z,-60
2017-01-08T06:47:25.658Z,-61
2017-01-08T06:47:56.208Z,-61
2017-01-08T06:48:26.701Z,-60
2017-01-08T06:48:57.184Z,-60
2017-01-08T06:49:27.693Z,-61
2017-01-08T06:49:58.192Z,-60
2017-01-08T06:50:28.712Z,-60
2017-01-08T06:50:59.238Z,-60
2017-01-08T06:51:29.892Z,-61
2017-01-08T06:52:00.402Z,-61
2017-01-08T06:52:30.912Z,-60
2017-01-08T06:53:01.481Z,-60
2017-01-08T06:53:32.045Z,-61
2017-01-08T06:54:02.573Z,-60
2017-01-08T06:54:33.071Z,-60
2017-01-08T06:55:03.530Z,-61
2017-01-08T06:55:34.078Z,-61
2017-01-08T06:56:04.599Z,-60
2017-01-08T06:56:35.097Z,-60
2017-01-08T06:57:05.649Z,-61
2017-01-08T06:57:36.192Z,-61
2017-01-08T06:58:06.835Z,-60
2017-01-08T06:58:37.355Z,-61
2017-01-08T06:59:07.950Z,-61
2017-01-08T06:59:38.547Z,-61
2017-01-08T07:00:09.040Z,-60
2017-01-08T07:00:39.509Z,-60